JBU1146 KFLL-KRIC
Flight info
| Callsign | JBU1146 |
|---|---|
| Flight time | 1h 49m |
| Altitude | 37000 |
| Route | FEALX2 ETECK GRUBR Y299 SEELO GARIC RANAY NEAVL DUCXS5 |
| Aircraft | A320/M-SDE3FGHIRWY/LB1 |
Departure
| Time | 2026-05-08 20:08 |
|---|---|
| Airport | Fort Lauderdale Hollywood International Airport (KFLL) |
Arrival
| Time | 2026-05-08 21:58 |
|---|---|
| Airport | Richmond International Airport (KRIC) |
| Time | Latitude | Longitude | Altitude | Speed | Heading |
|---|---|---|---|---|---|
| 2026-05-08 19:30 | 26.06884 | -80.14474 | 16 ft | 0 kts | 0° |
| 2026-05-08 19:51 | 26.06883 | -80.14474 | 16 ft | 2 kts | 0° |
| 2026-05-08 19:52 | 26.06857 | -80.14474 | 17 ft | 4 kts | 0° |
| 2026-05-08 19:52 | 26.06856 | -80.14474 | 16 ft | 0 kts | 0° |
| 2026-05-08 19:54 | 26.06851 | -80.14474 | 16 ft | 2 kts | 0° |
| 2026-05-08 19:54 | 26.06829 | -80.14472 | 16 ft | 4 kts | 330° |
| 2026-05-08 19:55 | 26.06818 | -80.14455 | 16 ft | 3 kts | 270° |
| 2026-05-08 19:55 | 26.06818 | -80.14438 | 16 ft | 0 kts | 270° |
| 2026-05-08 19:57 | 26.06818 | -80.14443 | 16 ft | 3 kts | 270° |
| 2026-05-08 19:57 | 26.06818 | -80.14489 | 16 ft | 8 kts | 271° |
| 2026-05-08 19:57 | 26.06819 | -80.14533 | 16 ft | 4 kts | 271° |
| 2026-05-08 19:58 | 26.06811 | -80.14564 | 15 ft | 4 kts | 231° |
| 2026-05-08 19:58 | 26.06787 | -80.14585 | 15 ft | 5 kts | 217° |
| 2026-05-08 19:58 | 26.06771 | -80.14606 | 16 ft | 3 kts | 238° |
| 2026-05-08 19:58 | 26.06767 | -80.14628 | 15 ft | 3 kts | 263° |
| 2026-05-08 19:59 | 26.06766 | -80.14638 | 15 ft | 0 kts | 265° |
| 2026-05-08 19:59 | 26.06766 | -80.14642 | 15 ft | 1 kts | 265° |
| 2026-05-08 19:59 | 26.06765 | -80.14657 | 15 ft | 4 kts | 264° |
| 2026-05-08 20:00 | 26.06749 | -80.14733 | 16 ft | 26 kts | 241° |
| 2026-05-08 20:00 | 26.06725 | -80.14789 | 20 ft | 1 kts | 276° |
| 2026-05-08 20:00 | 26.06746 | -80.14804 | 15 ft | 5 kts | 319° |
| 2026-05-08 20:00 | 26.06756 | -80.14819 | 15 ft | 0 kts | 297° |
| 2026-05-08 20:03 | 26.06758 | -80.14822 | 16 ft | 4 kts | 297° |
| 2026-05-08 20:03 | 26.06764 | -80.14903 | 15 ft | 12 kts | 262° |
| 2026-05-08 20:03 | 26.06768 | -80.15015 | 16 ft | 17 kts | 274° |
| 2026-05-08 20:03 | 26.06763 | -80.15154 | 16 ft | 17 kts | 274° |
| 2026-05-08 20:04 | 26.06741 | -80.15172 | 18 ft | 3 kts | 174° |
| 2026-05-08 20:04 | 26.06705 | -80.15189 | 22 ft | 8 kts | 232° |
| 2026-05-08 20:04 | 26.06696 | -80.15275 | 17 ft | 16 kts | 271° |
| 2026-05-08 20:04 | 26.06698 | -80.15426 | 16 ft | 22 kts | 270° |
| 2026-05-08 20:05 | 26.06697 | -80.15550 | 16 ft | 16 kts | 270° |
| 2026-05-08 20:05 | 26.06698 | -80.15663 | 18 ft | 0 kts | 269° |
| 2026-05-08 20:06 | 26.06698 | -80.15685 | 16 ft | 10 kts | 269° |
| 2026-05-08 20:06 | 26.06697 | -80.15757 | 16 ft | 0 kts | 270° |
| 2026-05-08 20:07 | 26.06697 | -80.15771 | 16 ft | 10 kts | 269° |
| 2026-05-08 20:07 | 26.06659 | -80.15820 | 16 ft | 6 kts | 188° |
| 2026-05-08 20:07 | 26.06636 | -80.15822 | 16 ft | 4 kts | 179° |
| 2026-05-08 20:07 | 26.06589 | -80.15769 | 19 ft | 10 kts | 89° |
| 2026-05-08 20:08 | 26.06589 | -80.15552 | 24 ft | 60 kts | 90° |
| 2026-05-08 20:08 | 26.06584 | -80.14845 | 20 ft | 119 kts | 90° |
| 2026-05-08 20:08 | 26.06575 | -80.13796 | 202 ft | 145 kts | 90° |
| 2026-05-08 20:08 | 26.06552 | -80.12709 | 842 ft | 138 kts | 88° |
| 2026-05-08 20:09 | 26.06574 | -80.11630 | 1418 ft | 144 kts | 86° |
| 2026-05-08 20:09 | 26.06602 | -80.10440 | 1717 ft | 164 kts | 88° |
| 2026-05-08 20:09 | 26.06630 | -80.09092 | 1979 ft | 184 kts | 88° |
| 2026-05-08 20:09 | 26.06654 | -80.07608 | 2268 ft | 201 kts | 88° |
| 2026-05-08 20:10 | 26.06676 | -80.06016 | 2596 ft | 208 kts | 90° |
| 2026-05-08 20:10 | 26.06690 | -80.04409 | 3006 ft | 210 kts | 90° |
| 2026-05-08 20:10 | 26.06705 | -80.02708 | 3247 ft | 228 kts | 90° |
| 2026-05-08 20:10 | 26.06946 | -80.00890 | 3560 ft | 247 kts | 69° |
| 2026-05-08 20:11 | 26.07861 | -79.99240 | 3958 ft | 266 kts | 50° |
| 2026-05-08 20:11 | 26.09067 | -79.97623 | 4631 ft | 274 kts | 50° |
| 2026-05-08 20:11 | 26.10293 | -79.95981 | 5400 ft | 278 kts | 50° |
| 2026-05-08 20:11 | 26.11534 | -79.94313 | 6198 ft | 282 kts | 51° |
| 2026-05-08 20:12 | 26.12785 | -79.92624 | 6985 ft | 284 kts | 51° |
| 2026-05-08 20:12 | 26.14049 | -79.90917 | 7727 ft | 287 kts | 51° |
| 2026-05-08 20:12 | 26.15328 | -79.89189 | 8425 ft | 291 kts | 51° |
| 2026-05-08 20:12 | 26.16599 | -79.87418 | 9092 ft | 295 kts | 53° |
| 2026-05-08 20:13 | 26.17833 | -79.85571 | 9753 ft | 299 kts | 54° |
| 2026-05-08 20:13 | 26.19055 | -79.83676 | 10339 ft | 306 kts | 54° |
| 2026-05-08 20:13 | 26.20331 | -79.81676 | 10478 ft | 328 kts | 54° |
| 2026-05-08 20:13 | 26.21674 | -79.79574 | 10609 ft | 347 kts | 54° |
| 2026-05-08 20:14 | 26.23116 | -79.77333 | 10745 ft | 364 kts | 54° |
| 2026-05-08 20:14 | 26.24630 | -79.74995 | 10893 ft | 380 kts | 54° |
| 2026-05-08 20:14 | 26.26211 | -79.72563 | 11022 ft | 395 kts | 54° |
| 2026-05-08 20:14 | 26.27854 | -79.70043 | 11156 ft | 408 kts | 54° |
| 2026-05-08 20:15 | 26.29601 | -79.67514 | 11483 ft | 415 kts | 48° |
| 2026-05-08 20:15 | 26.31609 | -79.65183 | 11920 ft | 419 kts | 46° |
| 2026-05-08 20:15 | 26.33649 | -79.62843 | 12339 ft | 423 kts | 45° |
| 2026-05-08 20:15 | 26.35680 | -79.60513 | 12779 ft | 426 kts | 45° |
| 2026-05-08 20:16 | 26.37750 | -79.58135 | 13233 ft | 429 kts | 45° |
| 2026-05-08 20:16 | 26.39835 | -79.55738 | 13673 ft | 432 kts | 45° |
| 2026-05-08 20:16 | 26.41934 | -79.53318 | 14103 ft | 435 kts | 45° |
| 2026-05-08 20:16 | 26.44044 | -79.50887 | 14498 ft | 437 kts | 45° |
| 2026-05-08 20:17 | 26.46168 | -79.48439 | 14907 ft | 440 kts | 45° |
| 2026-05-08 20:17 | 26.48305 | -79.45975 | 15339 ft | 443 kts | 44° |
| 2026-05-08 20:17 | 26.50454 | -79.43494 | 15721 ft | 447 kts | 44° |
| 2026-05-08 20:17 | 26.52624 | -79.40991 | 16103 ft | 450 kts | 44° |
| 2026-05-08 20:18 | 26.54083 | -79.39341 | 16367 ft | 451 kts | 41° |
| 2026-05-08 20:18 | 26.57367 | -79.36501 | 16863 ft | 452 kts | 30° |
| 2026-05-08 20:18 | 26.60061 | -79.34675 | 17267 ft | 454 kts | 28° |
| 2026-05-08 20:18 | 26.62771 | -79.32840 | 17646 ft | 457 kts | 28° |
| 2026-05-08 20:19 | 26.65494 | -79.30993 | 18042 ft | 459 kts | 28° |
| 2026-05-08 20:19 | 26.68232 | -79.29133 | 18420 ft | 462 kts | 28° |
| 2026-05-08 20:19 | 26.70052 | -79.27894 | 18662 ft | 464 kts | 28° |
| 2026-05-08 20:19 | 26.72814 | -79.26009 | 19013 ft | 466 kts | 28° |
| 2026-05-08 20:20 | 26.76534 | -79.23469 | 19484 ft | 470 kts | 28° |
| 2026-05-08 20:20 | 26.78387 | -79.22205 | 19716 ft | 472 kts | 28° |
| 2026-05-08 20:20 | 26.81197 | -79.20287 | 20058 ft | 474 kts | 28° |
| 2026-05-08 20:20 | 26.84021 | -79.18359 | 20375 ft | 477 kts | 28° |
| 2026-05-08 20:21 | 26.87787 | -79.15789 | 20806 ft | 480 kts | 28° |
| 2026-05-08 20:21 | 26.89715 | -79.14472 | 21022 ft | 481 kts | 28° |
| 2026-05-08 20:21 | 26.92579 | -79.12513 | 21320 ft | 483 kts | 28° |
| 2026-05-08 20:21 | 26.95454 | -79.10543 | 21628 ft | 484 kts | 28° |
| 2026-05-08 20:22 | 26.98328 | -79.08572 | 22018 ft | 484 kts | 27° |
| 2026-05-08 20:22 | 27.01195 | -79.06606 | 22400 ft | 483 kts | 27° |
| 2026-05-08 20:22 | 27.04059 | -79.04639 | 22778 ft | 482 kts | 27° |
| 2026-05-08 20:22 | 27.06877 | -79.02704 | 23143 ft | 481 kts | 27° |
| 2026-05-08 20:23 | 27.09734 | -79.00741 | 23507 ft | 481 kts | 27° |
| 2026-05-08 20:23 | 27.12588 | -78.98779 | 23876 ft | 481 kts | 27° |
| 2026-05-08 20:23 | 27.15439 | -78.96819 | 24251 ft | 480 kts | 27° |
| 2026-05-08 20:23 | 27.18290 | -78.94862 | 24631 ft | 480 kts | 27° |
| 2026-05-08 20:24 | 27.21138 | -78.92905 | 25014 ft | 480 kts | 27° |
| 2026-05-08 20:24 | 27.23980 | -78.90947 | 25416 ft | 479 kts | 27° |
| 2026-05-08 20:24 | 27.26823 | -78.88985 | 25801 ft | 479 kts | 27° |
| 2026-05-08 20:24 | 27.29663 | -78.87024 | 26197 ft | 479 kts | 27° |
| 2026-05-08 20:25 | 27.32498 | -78.85068 | 26585 ft | 478 kts | 27° |
| 2026-05-08 20:25 | 27.35297 | -78.83140 | 26972 ft | 478 kts | 27° |
| 2026-05-08 20:25 | 27.38203 | -78.81251 | 27357 ft | 474 kts | 21° |
| 2026-05-08 20:25 | 27.41240 | -78.79892 | 27725 ft | 467 kts | 11° |
| 2026-05-08 20:26 | 27.44342 | -78.79120 | 28105 ft | 459 kts | 2° |
| 2026-05-08 20:26 | 27.47503 | -78.78662 | 28496 ft | 458 kts | 1° |
| 2026-05-08 20:26 | 27.50660 | -78.78205 | 28899 ft | 458 kts | 1° |
| 2026-05-08 20:26 | 27.53818 | -78.77745 | 29300 ft | 457 kts | 1° |
| 2026-05-08 20:27 | 27.56967 | -78.77284 | 29709 ft | 456 kts | 1° |
| 2026-05-08 20:27 | 27.60116 | -78.76826 | 30084 ft | 456 kts | 1° |
| 2026-05-08 20:27 | 27.63264 | -78.76366 | 30485 ft | 456 kts | 1° |
| 2026-05-08 20:27 | 27.66406 | -78.75905 | 30882 ft | 455 kts | 1° |
| 2026-05-08 20:28 | 27.69542 | -78.75443 | 31293 ft | 454 kts | 1° |
| 2026-05-08 20:28 | 27.72670 | -78.74981 | 31712 ft | 453 kts | 1° |
| 2026-05-08 20:28 | 27.75751 | -78.74526 | 32124 ft | 452 kts | 1° |
| 2026-05-08 20:28 | 27.78866 | -78.74064 | 32520 ft | 451 kts | 1° |
| 2026-05-08 20:29 | 27.81971 | -78.73606 | 32918 ft | 450 kts | 1° |
| 2026-05-08 20:29 | 27.85070 | -78.73151 | 33299 ft | 449 kts | 1° |
| 2026-05-08 20:29 | 27.88162 | -78.72698 | 33693 ft | 447 kts | 1° |
| 2026-05-08 20:29 | 27.91242 | -78.72246 | 34062 ft | 446 kts | 1° |
| 2026-05-08 20:30 | 27.94317 | -78.71795 | 34403 ft | 446 kts | 0° |
| 2026-05-08 20:30 | 27.97387 | -78.71345 | 34764 ft | 444 kts | 0° |
| 2026-05-08 20:30 | 28.00407 | -78.70902 | 35101 ft | 443 kts | 0° |
| 2026-05-08 20:30 | 28.03455 | -78.70452 | 35439 ft | 441 kts | 360° |
| 2026-05-08 20:31 | 28.06498 | -78.70002 | 35752 ft | 440 kts | 359° |
| 2026-05-08 20:31 | 28.09530 | -78.69551 | 36074 ft | 439 kts | 359° |
| 2026-05-08 20:31 | 28.12553 | -78.69102 | 36389 ft | 437 kts | 359° |
| 2026-05-08 20:31 | 28.15564 | -78.68657 | 36670 ft | 436 kts | 359° |
| 2026-05-08 20:32 | 28.18572 | -78.68213 | 36919 ft | 435 kts | 359° |
| 2026-05-08 20:32 | 28.21578 | -78.67771 | 36994 ft | 437 kts | 359° |
| 2026-05-08 20:32 | 28.27616 | -78.66893 | 36998 ft | 442 kts | 359° |
| 2026-05-08 20:33 | 28.33724 | -78.65981 | 36999 ft | 443 kts | 359° |
| 2026-05-08 20:33 | 28.39837 | -78.65062 | 36999 ft | 443 kts | 359° |
| 2026-05-08 20:34 | 28.45959 | -78.64146 | 36999 ft | 444 kts | 359° |
| 2026-05-08 20:35 | 28.55111 | -78.62788 | 36999 ft | 444 kts | 359° |
| 2026-05-08 20:35 | 28.61246 | -78.61872 | 36997 ft | 445 kts | 359° |
| 2026-05-08 20:36 | 28.67381 | -78.60963 | 36996 ft | 445 kts | 359° |
| 2026-05-08 20:36 | 28.73517 | -78.60046 | 36998 ft | 445 kts | 359° |
| 2026-05-08 20:37 | 28.79651 | -78.59122 | 37001 ft | 445 kts | 358° |
| 2026-05-08 20:37 | 28.85746 | -78.58207 | 37003 ft | 444 kts | 358° |
| 2026-05-08 20:38 | 28.91878 | -78.57290 | 37004 ft | 444 kts | 358° |
| 2026-05-08 20:38 | 28.98010 | -78.56372 | 37005 ft | 444 kts | 358° |
| 2026-05-08 20:39 | 29.04141 | -78.55439 | 37005 ft | 444 kts | 358° |
| 2026-05-08 20:39 | 29.10271 | -78.54513 | 37006 ft | 444 kts | 358° |
| 2026-05-08 20:40 | 29.16400 | -78.53599 | 37007 ft | 444 kts | 358° |
| 2026-05-08 20:40 | 29.22483 | -78.52686 | 37006 ft | 444 kts | 358° |
| 2026-05-08 20:41 | 29.28609 | -78.51752 | 37006 ft | 444 kts | 358° |
| 2026-05-08 20:41 | 29.34731 | -78.50831 | 37006 ft | 444 kts | 357° |
| 2026-05-08 20:42 | 29.40850 | -78.49904 | 37013 ft | 444 kts | 357° |
| 2026-05-08 20:42 | 29.46973 | -78.48979 | 37017 ft | 442 kts | 355° |
| 2026-05-08 20:42 | 29.49994 | -78.48880 | 37020 ft | 429 kts | 346° |
| 2026-05-08 20:43 | 29.52946 | -78.49176 | 37020 ft | 425 kts | 344° |
| 2026-05-08 20:43 | 29.58797 | -78.49819 | 37018 ft | 425 kts | 344° |
| 2026-05-08 20:44 | 29.64687 | -78.50469 | 37021 ft | 425 kts | 344° |
| 2026-05-08 20:44 | 29.70575 | -78.51104 | 37023 ft | 425 kts | 344° |
| 2026-05-08 20:45 | 29.76463 | -78.51744 | 37025 ft | 425 kts | 344° |
| 2026-05-08 20:45 | 29.82349 | -78.52376 | 37024 ft | 425 kts | 344° |
| 2026-05-08 20:46 | 29.88198 | -78.52997 | 37025 ft | 425 kts | 344° |
| 2026-05-08 20:46 | 29.94083 | -78.53632 | 37026 ft | 425 kts | 344° |
| 2026-05-08 20:47 | 29.99962 | -78.54282 | 37026 ft | 425 kts | 344° |
| 2026-05-08 20:47 | 30.05841 | -78.54928 | 37026 ft | 424 kts | 343° |
| 2026-05-08 20:48 | 30.11683 | -78.55559 | 37029 ft | 425 kts | 343° |
| 2026-05-08 20:48 | 30.17683 | -78.55543 | 37031 ft | 443 kts | 355° |
| 2026-05-08 20:49 | 30.23803 | -78.54666 | 37036 ft | 443 kts | 355° |
| 2026-05-08 20:49 | 30.29926 | -78.53776 | 37035 ft | 443 kts | 355° |
| 2026-05-08 20:50 | 30.36048 | -78.52900 | 37035 ft | 443 kts | 355° |
| 2026-05-08 20:50 | 30.42172 | -78.52019 | 37043 ft | 444 kts | 355° |
| 2026-05-08 20:51 | 30.48267 | -78.51074 | 37047 ft | 445 kts | 356° |
| 2026-05-08 20:51 | 30.54401 | -78.50054 | 37056 ft | 446 kts | 356° |
| 2026-05-08 20:52 | 30.60538 | -78.49042 | 37055 ft | 446 kts | 356° |
| 2026-05-08 20:52 | 30.66680 | -78.48041 | 37054 ft | 446 kts | 356° |
| 2026-05-08 20:53 | 30.72831 | -78.47053 | 37058 ft | 446 kts | 356° |
| 2026-05-08 20:53 | 30.78937 | -78.46063 | 37064 ft | 446 kts | 356° |
| 2026-05-08 20:54 | 30.85088 | -78.45057 | 37068 ft | 446 kts | 356° |
| 2026-05-08 20:54 | 30.91234 | -78.44048 | 37070 ft | 446 kts | 355° |
| 2026-05-08 20:55 | 30.97381 | -78.43053 | 37069 ft | 446 kts | 355° |
| 2026-05-08 20:55 | 31.03493 | -78.42056 | 37068 ft | 447 kts | 355° |
| 2026-05-08 20:56 | 31.09650 | -78.41042 | 37067 ft | 447 kts | 355° |
| 2026-05-08 20:56 | 31.15811 | -78.40034 | 37068 ft | 447 kts | 355° |
| 2026-05-08 20:57 | 31.21976 | -78.39016 | 37069 ft | 447 kts | 355° |
| 2026-05-08 20:57 | 31.28098 | -78.38015 | 37070 ft | 447 kts | 355° |
| 2026-05-08 20:58 | 31.34260 | -78.37009 | 37067 ft | 448 kts | 355° |
| 2026-05-08 20:58 | 31.40436 | -78.35987 | 37067 ft | 448 kts | 355° |
| 2026-05-08 20:59 | 31.46611 | -78.34958 | 37067 ft | 448 kts | 355° |
| 2026-05-08 20:59 | 31.52750 | -78.33941 | 37069 ft | 448 kts | 354° |
| 2026-05-08 21:00 | 31.58923 | -78.32920 | 37067 ft | 448 kts | 354° |
| 2026-05-08 21:00 | 31.65104 | -78.31900 | 37068 ft | 448 kts | 354° |
| 2026-05-08 21:01 | 31.71279 | -78.30876 | 37068 ft | 448 kts | 354° |
| 2026-05-08 21:01 | 31.77414 | -78.29856 | 37071 ft | 448 kts | 354° |
| 2026-05-08 21:02 | 31.83588 | -78.28830 | 37075 ft | 448 kts | 354° |
| 2026-05-08 21:02 | 31.89767 | -78.27801 | 37077 ft | 448 kts | 354° |
| 2026-05-08 21:03 | 31.95948 | -78.26770 | 37078 ft | 448 kts | 354° |
| 2026-05-08 21:03 | 32.02085 | -78.25740 | 37077 ft | 449 kts | 354° |
| 2026-05-08 21:04 | 32.08257 | -78.24771 | 37079 ft | 446 kts | 353° |
| 2026-05-08 21:04 | 32.14418 | -78.23909 | 37078 ft | 446 kts | 353° |
| 2026-05-08 21:05 | 32.20586 | -78.23045 | 37060 ft | 448 kts | 353° |
| 2026-05-08 21:05 | 32.26747 | -78.22151 | 37055 ft | 450 kts | 353° |
| 2026-05-08 21:06 | 32.32965 | -78.21232 | 37060 ft | 451 kts | 354° |
| 2026-05-08 21:06 | 32.39194 | -78.20310 | 37059 ft | 452 kts | 353° |
| 2026-05-08 21:07 | 32.45438 | -78.19395 | 37066 ft | 452 kts | 353° |
| 2026-05-08 21:07 | 32.51640 | -78.18483 | 37082 ft | 452 kts | 353° |
| 2026-05-08 21:08 | 32.57885 | -78.17554 | 37085 ft | 452 kts | 353° |
| 2026-05-08 21:08 | 32.64128 | -78.16632 | 37086 ft | 452 kts | 353° |
| 2026-05-08 21:09 | 32.70372 | -78.15724 | 37084 ft | 452 kts | 353° |
| 2026-05-08 21:09 | 32.76576 | -78.14814 | 37083 ft | 452 kts | 353° |
| 2026-05-08 21:10 | 32.82818 | -78.13888 | 37093 ft | 452 kts | 353° |
| 2026-05-08 21:10 | 32.89067 | -78.12959 | 37084 ft | 452 kts | 353° |
| 2026-05-08 21:11 | 32.95311 | -78.12027 | 37081 ft | 452 kts | 353° |
| 2026-05-08 21:11 | 33.01554 | -78.11092 | 37079 ft | 452 kts | 353° |
| 2026-05-08 21:12 | 33.07757 | -78.10174 | 37082 ft | 452 kts | 352° |
| 2026-05-08 21:12 | 33.14004 | -78.09250 | 37082 ft | 453 kts | 352° |
| 2026-05-08 21:13 | 33.20255 | -78.08319 | 37085 ft | 453 kts | 352° |
| 2026-05-08 21:13 | 33.26500 | -78.07383 | 37096 ft | 452 kts | 352° |
| 2026-05-08 21:14 | 33.32703 | -78.06452 | 37088 ft | 452 kts | 352° |
| 2026-05-08 21:14 | 33.38939 | -78.05518 | 37094 ft | 452 kts | 352° |
| 2026-05-08 21:15 | 33.45176 | -78.04579 | 37084 ft | 451 kts | 352° |
| 2026-05-08 21:15 | 33.51415 | -78.03632 | 37087 ft | 452 kts | 352° |
| 2026-05-08 21:16 | 33.57616 | -78.02692 | 37085 ft | 452 kts | 352° |
| 2026-05-08 21:16 | 33.63847 | -78.01751 | 37085 ft | 452 kts | 352° |
| 2026-05-08 21:17 | 33.70087 | -78.00813 | 37101 ft | 452 kts | 352° |
| 2026-05-08 21:17 | 33.76326 | -77.99868 | 37094 ft | 451 kts | 352° |
| 2026-05-08 21:18 | 33.82508 | -77.98931 | 37088 ft | 450 kts | 352° |
| 2026-05-08 21:18 | 33.88725 | -77.98000 | 37093 ft | 449 kts | 351° |
| 2026-05-08 21:19 | 33.94917 | -77.97254 | 37088 ft | 445 kts | 349° |
| 2026-05-08 21:19 | 34.01081 | -77.96649 | 37097 ft | 444 kts | 349° |
| 2026-05-08 21:20 | 34.07208 | -77.96027 | 37085 ft | 445 kts | 350° |
| 2026-05-08 21:20 | 34.13376 | -77.95347 | 37083 ft | 445 kts | 350° |
| 2026-05-08 21:21 | 34.19543 | -77.94665 | 37086 ft | 445 kts | 349° |
| 2026-05-08 21:21 | 34.25712 | -77.93984 | 37081 ft | 445 kts | 349° |
| 2026-05-08 21:22 | 34.31867 | -77.93305 | 37077 ft | 444 kts | 349° |
| 2026-05-08 21:22 | 34.37986 | -77.92632 | 37079 ft | 445 kts | 349° |
| 2026-05-08 21:23 | 34.44145 | -77.91950 | 37078 ft | 444 kts | 349° |
| 2026-05-08 21:23 | 34.50303 | -77.91275 | 37075 ft | 444 kts | 349° |
| 2026-05-08 21:24 | 34.56461 | -77.90597 | 37076 ft | 445 kts | 349° |
| 2026-05-08 21:24 | 34.62617 | -77.89908 | 37073 ft | 444 kts | 349° |
| 2026-05-08 21:25 | 34.68731 | -77.89226 | 37071 ft | 445 kts | 349° |
| 2026-05-08 21:25 | 34.74889 | -77.88538 | 37067 ft | 444 kts | 349° |
| 2026-05-08 21:26 | 34.81045 | -77.87855 | 37066 ft | 444 kts | 349° |
| 2026-05-08 21:26 | 34.87195 | -77.87170 | 37066 ft | 444 kts | 349° |
| 2026-05-08 21:27 | 34.93303 | -77.86488 | 37069 ft | 444 kts | 348° |
| 2026-05-08 21:27 | 34.99453 | -77.85802 | 37068 ft | 444 kts | 348° |
| 2026-05-08 21:28 | 35.05599 | -77.85112 | 37069 ft | 444 kts | 348° |
| 2026-05-08 21:28 | 35.11745 | -77.84416 | 37073 ft | 443 kts | 348° |
| 2026-05-08 21:29 | 35.17881 | -77.83730 | 37081 ft | 442 kts | 348° |
| 2026-05-08 21:29 | 35.23958 | -77.83047 | 37082 ft | 441 kts | 348° |
| 2026-05-08 21:30 | 35.30069 | -77.82357 | 37082 ft | 440 kts | 348° |
| 2026-05-08 21:30 | 35.36170 | -77.81673 | 37082 ft | 440 kts | 347° |
| 2026-05-08 21:31 | 35.42265 | -77.80989 | 37082 ft | 440 kts | 347° |
| 2026-05-08 21:31 | 35.48294 | -77.80423 | 37080 ft | 433 kts | 345° |
| 2026-05-08 21:32 | 35.54271 | -77.80254 | 37078 ft | 428 kts | 342° |
| 2026-05-08 21:32 | 35.60219 | -77.80188 | 37077 ft | 428 kts | 343° |
| 2026-05-08 21:33 | 35.66187 | -77.80050 | 37077 ft | 429 kts | 343° |
| 2026-05-08 21:33 | 35.72125 | -77.79847 | 37072 ft | 430 kts | 343° |
| 2026-05-08 21:34 | 35.78101 | -77.79638 | 37068 ft | 429 kts | 343° |
| 2026-05-08 21:34 | 35.84067 | -77.79454 | 37066 ft | 429 kts | 343° |
| 2026-05-08 21:35 | 35.90021 | -77.79273 | 37060 ft | 425 kts | 343° |
| 2026-05-08 21:35 | 35.95789 | -77.79061 | 37057 ft | 413 kts | 342° |
| 2026-05-08 21:36 | 36.01520 | -77.78887 | 37056 ft | 411 kts | 342° |
| 2026-05-08 21:36 | 36.07237 | -77.78722 | 37053 ft | 411 kts | 342° |
| 2026-05-08 21:36 | 36.10094 | -77.78637 | 36626 ft | 409 kts | 342° |
| 2026-05-08 21:37 | 36.12971 | -77.78560 | 35077 ft | 421 kts | 342° |
| 2026-05-08 21:37 | 36.15937 | -77.78498 | 33504 ft | 432 kts | 342° |
| 2026-05-08 21:37 | 36.18937 | -77.78427 | 31907 ft | 442 kts | 343° |
| 2026-05-08 21:37 | 36.22040 | -77.78339 | 30273 ft | 450 kts | 345° |
| 2026-05-08 21:38 | 36.25192 | -77.78230 | 28587 ft | 455 kts | 347° |
| 2026-05-08 21:38 | 36.28373 | -77.78105 | 26719 ft | 460 kts | 348° |
| 2026-05-08 21:38 | 36.31594 | -77.77984 | 24660 ft | 466 kts | 350° |
| 2026-05-08 21:38 | 36.34849 | -77.77865 | 22987 ft | 466 kts | 351° |
| 2026-05-08 21:39 | 36.38016 | -77.77735 | 22296 ft | 442 kts | 352° |
| 2026-05-08 21:39 | 36.41028 | -77.77604 | 21484 ft | 426 kts | 353° |
| 2026-05-08 21:39 | 36.43994 | -77.77501 | 20627 ft | 425 kts | 353° |
| 2026-05-08 21:39 | 36.46897 | -77.77420 | 19800 ft | 420 kts | 353° |
| 2026-05-08 21:40 | 36.49805 | -77.77345 | 18986 ft | 415 kts | 353° |
| 2026-05-08 21:40 | 36.52677 | -77.77266 | 18179 ft | 410 kts | 353° |
| 2026-05-08 21:40 | 36.55510 | -77.77182 | 17356 ft | 405 kts | 353° |
| 2026-05-08 21:41 | 36.61072 | -77.77001 | 15780 ft | 395 kts | 354° |
| 2026-05-08 21:41 | 36.63829 | -77.76911 | 15027 ft | 396 kts | 355° |
| 2026-05-08 21:41 | 36.66588 | -77.76827 | 14248 ft | 396 kts | 355° |
| 2026-05-08 21:41 | 36.69294 | -77.76747 | 13539 ft | 394 kts | 355° |
| 2026-05-08 21:42 | 36.72024 | -77.76663 | 12846 ft | 390 kts | 356° |
| 2026-05-08 21:42 | 36.74721 | -77.76576 | 12315 ft | 383 kts | 356° |
| 2026-05-08 21:42 | 36.77318 | -77.76486 | 12187 ft | 364 kts | 356° |
| 2026-05-08 21:42 | 36.79787 | -77.76398 | 12055 ft | 347 kts | 356° |
| 2026-05-08 21:43 | 36.82142 | -77.76314 | 11932 ft | 331 kts | 356° |
| 2026-05-08 21:43 | 36.84398 | -77.76236 | 11820 ft | 318 kts | 356° |
| 2026-05-08 21:43 | 36.86567 | -77.76165 | 11700 ft | 306 kts | 355° |
| 2026-05-08 21:43 | 36.88632 | -77.76100 | 11577 ft | 296 kts | 355° |
| 2026-05-08 21:44 | 36.90663 | -77.76035 | 11347 ft | 289 kts | 356° |
| 2026-05-08 21:44 | 36.92651 | -77.75973 | 11290 ft | 285 kts | 356° |
| 2026-05-08 21:44 | 36.94643 | -77.75915 | 11220 ft | 287 kts | 356° |
| 2026-05-08 21:44 | 36.96641 | -77.75730 | 11098 ft | 290 kts | 5° |
| 2026-05-08 21:45 | 36.98605 | -77.75068 | 10930 ft | 296 kts | 16° |
| 2026-05-08 21:45 | 37.00458 | -77.73918 | 10614 ft | 299 kts | 26° |
| 2026-05-08 21:45 | 37.02233 | -77.72575 | 10319 ft | 298 kts | 27° |
| 2026-05-08 21:45 | 37.03973 | -77.71263 | 10038 ft | 296 kts | 27° |
| 2026-05-08 21:46 | 37.05739 | -77.69937 | 9755 ft | 295 kts | 27° |
| 2026-05-08 21:46 | 37.07499 | -77.68623 | 9476 ft | 293 kts | 28° |
| 2026-05-08 21:46 | 37.09251 | -77.67315 | 9188 ft | 293 kts | 28° |
| 2026-05-08 21:46 | 37.10995 | -77.66015 | 8908 ft | 291 kts | 28° |
| 2026-05-08 21:47 | 37.12827 | -77.64966 | 8632 ft | 288 kts | 14° |
| 2026-05-08 21:47 | 37.14779 | -77.64514 | 8362 ft | 284 kts | 1° |
| 2026-05-08 21:47 | 37.16748 | -77.64538 | 8084 ft | 282 kts | 356° |
| 2026-05-08 21:47 | 37.18710 | -77.64600 | 7812 ft | 282 kts | 356° |
| 2026-05-08 21:48 | 37.20666 | -77.64658 | 7550 ft | 280 kts | 356° |
| 2026-05-08 21:48 | 37.22586 | -77.64717 | 7302 ft | 280 kts | 356° |
| 2026-05-08 21:48 | 37.24527 | -77.64780 | 7018 ft | 278 kts | 356° |
| 2026-05-08 21:48 | 37.26460 | -77.64839 | 6739 ft | 277 kts | 356° |
| 2026-05-08 21:49 | 37.28387 | -77.64896 | 6486 ft | 276 kts | 356° |
| 2026-05-08 21:49 | 37.30309 | -77.64950 | 6240 ft | 276 kts | 356° |
| 2026-05-08 21:49 | 37.32224 | -77.65007 | 5950 ft | 275 kts | 356° |
| 2026-05-08 21:49 | 37.34128 | -77.65064 | 5685 ft | 273 kts | 356° |
| 2026-05-08 21:50 | 37.36029 | -77.65121 | 5418 ft | 273 kts | 356° |
| 2026-05-08 21:50 | 37.37899 | -77.65179 | 5180 ft | 273 kts | 356° |
| 2026-05-08 21:50 | 37.39793 | -77.65235 | 4892 ft | 271 kts | 356° |
| 2026-05-08 21:50 | 37.41677 | -77.65293 | 4619 ft | 271 kts | 356° |
| 2026-05-08 21:51 | 37.43561 | -77.65344 | 4365 ft | 270 kts | 359° |
| 2026-05-08 21:51 | 37.45418 | -77.64938 | 4133 ft | 273 kts | 18° |
| 2026-05-08 21:51 | 37.47079 | -77.63790 | 4005 ft | 276 kts | 38° |
| 2026-05-08 21:51 | 37.48394 | -77.62030 | 4020 ft | 278 kts | 52° |
| 2026-05-08 21:52 | 37.49565 | -77.60096 | 4026 ft | 278 kts | 52° |
| 2026-05-08 21:52 | 37.50724 | -77.58187 | 4037 ft | 279 kts | 52° |
| 2026-05-08 21:52 | 37.51899 | -77.56252 | 4023 ft | 278 kts | 52° |
| 2026-05-08 21:52 | 37.53075 | -77.54324 | 4019 ft | 278 kts | 52° |
| 2026-05-08 21:53 | 37.54253 | -77.52389 | 4016 ft | 277 kts | 52° |
| 2026-05-08 21:53 | 37.55430 | -77.50450 | 4020 ft | 279 kts | 52° |
| 2026-05-08 21:53 | 37.56606 | -77.48513 | 4003 ft | 279 kts | 52° |
| 2026-05-08 21:53 | 37.57760 | -77.46606 | 3999 ft | 267 kts | 52° |
| 2026-05-08 21:54 | 37.58854 | -77.44800 | 4022 ft | 252 kts | 52° |
| 2026-05-08 21:54 | 37.59888 | -77.43102 | 4027 ft | 237 kts | 52° |
| 2026-05-08 21:54 | 37.60880 | -77.41466 | 4021 ft | 234 kts | 52° |
| 2026-05-08 21:54 | 37.61854 | -77.39856 | 4024 ft | 234 kts | 53° |
| 2026-05-08 21:55 | 37.62604 | -77.38075 | 4003 ft | 225 kts | 73° |
| 2026-05-08 21:55 | 37.62817 | -77.36182 | 4004 ft | 216 kts | 94° |
| 2026-05-08 21:55 | 37.62534 | -77.34346 | 3923 ft | 213 kts | 113° |
| 2026-05-08 21:56 | 37.60658 | -77.31466 | 2823 ft | 219 kts | 152° |
| 2026-05-08 21:56 | 37.59249 | -77.30752 | 2269 ft | 219 kts | 171° |
| 2026-05-08 21:56 | 37.57726 | -77.30655 | 1709 ft | 221 kts | 189° |
| 2026-05-08 21:56 | 37.56231 | -77.31083 | 1343 ft | 215 kts | 195° |
| 2026-05-08 21:57 | 37.54868 | -77.31506 | 1173 ft | 197 kts | 195° |
| 2026-05-08 21:57 | 37.53543 | -77.31933 | 705 ft | 195 kts | 195° |
| 2026-05-08 21:57 | 37.52242 | -77.32268 | 416 ft | 187 kts | 192° |
| 2026-05-08 21:57 | 37.51016 | -77.32638 | 173 ft | 163 kts | 198° |
| 2026-05-08 21:58 | 37.50209 | -77.32869 | 172 ft | 75 kts | 193° |
| 2026-05-08 21:58 | 37.49999 | -77.32984 | 173 ft | 16 kts | 261° |
| 2026-05-08 21:58 | 37.50037 | -77.33058 | 173 ft | 8 kts | 353° |
| 2026-05-08 21:58 | 37.50076 | -77.33050 | 173 ft | 12 kts | 14° |
| 2026-05-08 21:59 | 37.50196 | -77.33012 | 173 ft | 18 kts | 13° |
| 2026-05-08 21:59 | 37.50296 | -77.32985 | 173 ft | 12 kts | 12° |
| 2026-05-08 21:59 | 37.50361 | -77.32967 | 173 ft | 15 kts | 13° |
| 2026-05-08 21:59 | 37.50545 | -77.32912 | 173 ft | 31 kts | 11° |
| 2026-05-08 22:00 | 37.50732 | -77.32855 | 173 ft | 24 kts | 13° |
| 2026-05-08 22:00 | 37.50786 | -77.32838 | 173 ft | 0 kts | 13° |
| 2026-05-08 22:01 | 37.50827 | -77.32827 | 173 ft | 8 kts | 13° |
| 2026-05-08 22:01 | 37.50891 | -77.32808 | 173 ft | 11 kts | 13° |
| 2026-05-08 22:02 | 37.50965 | -77.32825 | 173 ft | 13 kts | 310° |
| 2026-05-08 22:02 | 37.51051 | -77.32847 | 173 ft | 15 kts | 9° |
| 2026-05-08 22:02 | 37.51114 | -77.32922 | 173 ft | 8 kts | 283° |
| 2026-05-08 22:02 | 37.51130 | -77.33005 | 173 ft | 8 kts | 283° |
| 2026-05-08 22:03 | 37.51132 | -77.33013 | 173 ft | 1 kts | 284° |
| 2026-05-08 22:03 | 37.51136 | -77.33035 | 173 ft | 5 kts | 283° |
| 2026-05-08 22:03 | 37.51084 | -77.33116 | 173 ft | 18 kts | 193° |
| 2026-05-08 22:03 | 37.50996 | -77.33141 | 173 ft | 13 kts | 199° |
| 2026-05-08 22:04 | 37.50944 | -77.33132 | 173 ft | 5 kts | 162° |
| 2026-05-08 22:04 | 37.50926 | -77.33125 | 173 ft | 0 kts | 163° |